sensor_id;sensor_type;location;lat;lon;timestamp;temperature;humidity
34815;DHT22;21030;53.912;15.214;2023-09-08T00:00:17;41.30;29.00
34815;DHT22;21030;53.912;15.214;2023-09-08T00:02:44;41.20;29.00
34815;DHT22;21030;53.912;15.214;2023-09-08T00:05:11;41.10;29.10
34815;DHT22;21030;53.912;15.214;2023-09-08T00:07:38;41.20;29.00
34815;DHT22;21030;53.912;15.214;2023-09-08T00:10:05;41.20;29.00
34815;DHT22;21030;53.912;15.214;2023-09-08T00:12:33;41.10;29.00
34815;DHT22;21030;53.912;15.214;2023-09-08T00:15:02;41.00;29.10
34815;DHT22;21030;53.912;15.214;2023-09-08T00:17:31;41.00;29.20
34815;DHT22;21030;53.912;15.214;2023-09-08T00:20:00;41.00;29.20
34815;DHT22;21030;53.912;15.214;2023-09-08T00:22:33;41.00;29.10
34815;DHT22;21030;53.912;15.214;2023-09-08T00:25:02;41.10;29.10
34815;DHT22;21030;53.912;15.214;2023-09-08T00:27:32;41.10;28.90
34815;DHT22;21030;53.912;15.214;2023-09-08T00:30:01;41.00;28.90
34815;DHT22;21030;53.912;15.214;2023-09-08T00:32:30;40.80;28.90
34815;DHT22;21030;53.912;15.214;2023-09-08T00:35:00;40.80;28.90
34815;DHT22;21030;53.912;15.214;2023-09-08T00:37:29;40.90;28.90
34815;DHT22;21030;53.912;15.214;2023-09-08T00:39:58;40.80;28.90
34815;DHT22;21030;53.912;15.214;2023-09-08T00:42:27;41.00;28.90
34815;DHT22;21030;53.912;15.214;2023-09-08T00:44:56;40.90;28.70
34815;DHT22;21030;53.912;15.214;2023-09-08T00:47:24;41.00;28.60
34815;DHT22;21030;53.912;15.214;2023-09-08T00:49:53;40.90;28.60
34815;DHT22;21030;53.912;15.214;2023-09-08T00:52:22;40.80;28.80
34815;DHT22;21030;53.912;15.214;2023-09-08T00:54:51;40.70;28.90
34815;DHT22;21030;53.912;15.214;2023-09-08T00:57:20;40.70;28.90
34815;DHT22;21030;53.912;15.214;2023-09-08T00:59:50;40.80;28.90
34815;DHT22;21030;53.912;15.214;2023-09-08T01:02:20;40.70;28.80
34815;DHT22;21030;53.912;15.214;2023-09-08T01:04:49;40.80;28.70
34815;DHT22;21030;53.912;15.214;2023-09-08T01:07:19;40.80;28.60
34815;DHT22;21030;53.912;15.214;2023-09-08T01:09:49;40.80;28.50
34815;DHT22;21030;53.912;15.214;2023-09-08T01:12:19;40.60;28.50
34815;DHT22;21030;53.912;15.214;2023-09-08T01:14:46;40.60;28.70
34815;DHT22;21030;53.912;15.214;2023-09-08T01:17:15;40.50;28.70
34815;DHT22;21030;53.912;15.214;2023-09-08T01:19:45;40.50;28.70
34815;DHT22;21030;53.912;15.214;2023-09-08T01:25:22;40.50;28.70
34815;DHT22;21030;53.912;15.214;2023-09-08T01:27:56;40.50;28.70
34815;DHT22;21030;53.912;15.214;2023-09-08T01:30:27;40.50;28.70
34815;DHT22;21030;53.912;15.214;2023-09-08T01:32:56;40.60;28.70
34815;DHT22;21030;53.912;15.214;2023-09-08T01:35:25;40.50;28.70
34815;DHT22;21030;53.912;15.214;2023-09-08T01:37:55;40.50;28.60
34815;DHT22;21030;53.912;15.214;2023-09-08T01:40:23;40.60;28.60
34815;DHT22;21030;53.912;15.214;2023-09-08T01:42:51;40.60;28.50
34815;DHT22;21030;53.912;15.214;2023-09-08T01:45:19;40.60;28.50
34815;DHT22;21030;53.912;15.214;2023-09-08T01:47:46;40.60;28.40
34815;DHT22;21030;53.912;15.214;2023-09-08T01:50:13;40.70;28.40
34815;DHT22;21030;53.912;15.214;2023-09-08T01:52:43;40.70;28.30
34815;DHT22;21030;53.912;15.214;2023-09-08T01:55:12;40.70;28.40
34815;DHT22;21030;53.912;15.214;2023-09-08T01:57:39;40.70;28.40
34815;DHT22;21030;53.912;15.214;2023-09-08T02:00:08;40.60;28.40
34815;DHT22;21030;53.912;15.214;2023-09-08T02:02:36;40.50;28.40
34815;DHT22;21030;53.912;15.214;2023-09-08T02:05:06;40.40;28.50
34815;DHT22;21030;53.912;15.214;2023-09-08T02:07:36;40.30;28.60
34815;DHT22;21030;53.912;15.214;2023-09-08T02:10:05;40.20;28.60
34815;DHT22;21030;53.912;15.214;2023-09-08T02:12:34;40.30;28.50
34815;DHT22;21030;53.912;15.214;2023-09-08T02:15:02;40.40;28.50
34815;DHT22;21030;53.912;15.214;2023-09-08T02:17:31;40.50;29.10
34815;DHT22;21030;53.912;15.214;2023-09-08T02:20:00;40.50;28.40
34815;DHT22;21030;53.912;15.214;2023-09-08T02:22:28;40.60;28.30
34815;DHT22;21030;53.912;15.214;2023-09-08T02:24:57;40.50;28.30
34815;DHT22;21030;53.912;15.214;2023-09-08T02:27:26;40.50;28.30
34815;DHT22;21030;53.912;15.214;2023-09-08T02:29:55;40.30;28.30
34815;DHT22;21030;53.912;15.214;2023-09-08T02:32:24;40.40;28.50
34815;DHT22;21030;53.912;15.214;2023-09-08T02:34:52;40.30;28.50
34815;DHT22;21030;53.912;15.214;2023-09-08T02:37:20;40.30;28.50
34815;DHT22;21030;53.912;15.214;2023-09-08T02:39:47;40.30;28.50
34815;DHT22;21030;53.912;15.214;2023-09-08T02:42:15;40.30;28.50
34815;DHT22;21030;53.912;15.214;2023-09-08T02:44:43;40.30;28.50
34815;DHT22;21030;53.912;15.214;2023-09-08T02:47:12;40.30;28.50
34815;DHT22;21030;53.912;15.214;2023-09-08T02:49:41;40.20;28.60
34815;DHT22;21030;53.912;15.214;2023-09-08T02:52:11;40.20;28.60
34815;DHT22;21030;53.912;15.214;2023-09-08T02:54:40;40.20;28.60
34815;DHT22;21030;53.912;15.214;2023-09-08T02:57:08;40.20;28.60
34815;DHT22;21030;53.912;15.214;2023-09-08T02:59:37;40.20;28.60
34815;DHT22;21030;53.912;15.214;2023-09-08T03:02:06;40.30;28.70
34815;DHT22;21030;53.912;15.214;2023-09-08T03:04:35;40.20;28.70
34815;DHT22;21030;53.912;15.214;2023-09-08T03:07:03;40.10;28.70
34815;DHT22;21030;53.912;15.214;2023-09-08T03:09:33;40.10;28.70
34815;DHT22;21030;53.912;15.214;2023-09-08T03:12:01;40.10;28.70
34815;DHT22;21030;53.912;15.214;2023-09-08T03:14:31;40.10;28.80
34815;DHT22;21030;53.912;15.214;2023-09-08T03:17:00;40.10;28.70
34815;DHT22;21030;53.912;15.214;2023-09-08T03:19:29;40.10;28.70
34815;DHT22;21030;53.912;15.214;2023-09-08T03:21:57;40.10;28.70
34815;DHT22;21030;53.912;15.214;2023-09-08T03:24:24;40.10;28.70
34815;DHT22;21030;53.912;15.214;2023-09-08T03:26:51;40.10;28.80
34815;DHT22;21030;53.912;15.214;2023-09-08T03:29:19;39.90;28.80
34815;DHT22;21030;53.912;15.214;2023-09-08T03:31:45;39.90;28.80
34815;DHT22;21030;53.912;15.214;2023-09-08T03:34:13;39.70;29.00
34815;DHT22;21030;53.912;15.214;2023-09-08T03:36:40;39.70;29.00
34815;DHT22;21030;53.912;15.214;2023-09-08T03:39:07;39.70;29.00
34815;DHT22;21030;53.912;15.214;2023-09-08T03:41:36;39.70;28.90
34815;DHT22;21030;53.912;15.214;2023-09-08T03:44:03;39.80;28.90
34815;DHT22;21030;53.912;15.214;2023-09-08T03:46:30;39.60;28.90
34815;DHT22;21030;53.912;15.214;2023-09-08T03:48:57;39.60;29.00
34815;DHT22;21030;53.912;15.214;2023-09-08T03:51:28;39.70;29.00
34815;DHT22;21030;53.912;15.214;2023-09-08T03:53:55;39.80;28.80
34815;DHT22;21030;53.912;15.214;2023-09-08T03:56:22;39.80;28.80
34815;DHT22;21030;53.912;15.214;2023-09-08T03:58:49;39.80;28.80
34815;DHT22;21030;53.912;15.214;2023-09-08T04:01:16;39.80;28.80
34815;DHT22;21030;53.912;15.214;2023-09-08T04:03:43;39.80;28.80
34815;DHT22;21030;53.912;15.214;2023-09-08T04:06:10;39.90;28.80
34815;DHT22;21030;53.912;15.214;2023-09-08T04:08:38;39.80;28.80
34815;DHT22;21030;53.912;15.214;2023-09-08T04:11:05;39.80;28.80
34815;DHT22;21030;53.912;15.214;2023-09-08T04:13:32;39.80;28.80
34815;DHT22;21030;53.912;15.214;2023-09-08T04:16:00;39.70;28.80
34815;DHT22;21030;53.912;15.214;2023-09-08T04:18:27;39.90;28.80
34815;DHT22;21030;53.912;15.214;2023-09-08T04:20:54;39.90;28.70
34815;DHT22;21030;53.912;15.214;2023-09-08T04:23:21;40.00;28.70
34815;DHT22;21030;53.912;15.214;2023-09-08T04:25:48;39.90;28.70
34815;DHT22;21030;53.912;15.214;2023-09-08T04:28:15;39.80;28.70
34815;DHT22;21030;53.912;15.214;2023-09-08T04:30:42;39.80;28.80
34815;DHT22;21030;53.912;15.214;2023-09-08T04:33:09;39.90;28.70
34815;DHT22;21030;53.912;15.214;2023-09-08T04:35:36;39.90;28.70
34815;DHT22;21030;53.912;15.214;2023-09-08T04:38:03;40.00;28.80
34815;DHT22;21030;53.912;15.214;2023-09-08T04:40:30;39.90;28.70
34815;DHT22;21030;53.912;15.214;2023-09-08T04:42:58;40.00;28.70
34815;DHT22;21030;53.912;15.214;2023-09-08T04:45:25;40.00;28.70
34815;DHT22;21030;53.912;15.214;2023-09-08T04:47:52;40.00;28.60
34815;DHT22;21030;53.912;15.214;2023-09-08T04:50:20;40.10;28.60
34815;DHT22;21030;53.912;15.214;2023-09-08T04:52:47;40.20;28.60
34815;DHT22;21030;53.912;15.214;2023-09-08T04:55:14;40.20;28.50
34815;DHT22;21030;53.912;15.214;2023-09-08T04:57:41;40.30;28.60
34815;DHT22;21030;53.912;15.214;2023-09-08T05:00:08;40.30;28.50
34815;DHT22;21030;53.912;15.214;2023-09-08T05:02:35;40.20;28.70
34815;DHT22;21030;53.912;15.214;2023-09-08T05:05:03;40.30;28.60
34815;DHT22;21030;53.912;15.214;2023-09-08T05:07:31;40.40;28.40
34815;DHT22;21030;53.912;15.214;2023-09-08T05:09:58;40.40;28.90
34815;DHT22;21030;53.912;15.214;2023-09-08T05:12:25;40.50;28.40
34815;DHT22;21030;53.912;15.214;2023-09-08T05:14:52;40.60;28.30
34815;DHT22;21030;53.912;15.214;2023-09-08T05:17:23;40.60;28.20
34815;DHT22;21030;53.912;15.214;2023-09-08T05:19:50;40.70;28.10
34815;DHT22;21030;53.912;15.214;2023-09-08T05:22:17;40.70;28.00
34815;DHT22;21030;53.912;15.214;2023-09-08T05:24:44;40.70;28.10
34815;DHT22;21030;53.912;15.214;2023-09-08T05:27:12;40.80;28.00
34815;DHT22;21030;53.912;15.214;2023-09-08T05:29:39;40.80;28.00
34815;DHT22;21030;53.912;15.214;2023-09-08T05:32:06;40.50;28.00
34815;DHT22;21030;53.912;15.214;2023-09-08T05:34:33;40.80;28.10
34815;DHT22;21030;53.912;15.214;2023-09-08T05:37:00;40.90;28.00
34815;DHT22;21030;53.912;15.214;2023-09-08T05:39:27;40.90;27.90
34815;DHT22;21030;53.912;15.214;2023-09-08T05:41:54;41.00;27.80
34815;DHT22;21030;53.912;15.214;2023-09-08T05:44:21;41.00;28.40
34815;DHT22;21030;53.912;15.214;2023-09-08T05:46:49;41.10;27.90
34815;DHT22;21030;53.912;15.214;2023-09-08T05:49:16;41.10;27.60
34815;DHT22;21030;53.912;15.214;2023-09-08T05:51:44;41.30;27.50
34815;DHT22;21030;53.912;15.214;2023-09-08T05:54:11;41.30;27.50
34815;DHT22;21030;53.912;15.214;2023-09-08T05:56:38;41.60;27.40
34815;DHT22;21030;53.912;15.214;2023-09-08T05:59:05;41.80;27.30
34815;DHT22;21030;53.912;15.214;2023-09-08T06:01:33;41.90;27.10
34815;DHT22;21030;53.912;15.214;2023-09-08T06:04:00;41.80;27.10
34815;DHT22;21030;53.912;15.214;2023-09-08T06:06:27;41.90;27.00
34815;DHT22;21030;53.912;15.214;2023-09-08T06:08:55;42.20;26.80
34815;DHT22;21030;53.912;15.214;2023-09-08T06:11:22;42.00;26.80
34815;DHT22;21030;53.912;15.214;2023-09-08T06:13:49;42.20;26.90
34815;DHT22;21030;53.912;15.214;2023-09-08T06:16:16;42.40;26.80
34815;DHT22;21030;53.912;15.214;2023-09-08T06:18:43;42.60;26.80
34815;DHT22;21030;53.912;15.214;2023-09-08T06:21:11;42.90;26.50
34815;DHT22;21030;53.912;15.214;2023-09-08T06:23:38;43.30;26.20
34815;DHT22;21030;53.912;15.214;2023-09-08T06:26:06;43.60;26.00
34815;DHT22;21030;53.912;15.214;2023-09-08T06:28:33;43.80;25.70
34815;DHT22;21030;53.912;15.214;2023-09-08T06:31:00;44.20;25.80
34815;DHT22;21030;53.912;15.214;2023-09-08T06:33:28;44.50;25.60
34815;DHT22;21030;53.912;15.214;2023-09-08T06:35:55;44.70;25.40
34815;DHT22;21030;53.912;15.214;2023-09-08T06:38:22;44.90;25.20
34815;DHT22;21030;53.912;15.214;2023-09-08T06:40:49;45.00;25.00
34815;DHT22;21030;53.912;15.214;2023-09-08T06:43:19;45.30;25.00
34815;DHT22;21030;53.912;15.214;2023-09-08T06:45:48;45.60;24.50
34815;DHT22;21030;53.912;15.214;2023-09-08T06:48:18;45.90;24.30
34815;DHT22;21030;53.912;15.214;2023-09-08T06:50:45;46.40;24.10
34815;DHT22;21030;53.912;15.214;2023-09-08T06:53:12;46.60;23.90
34815;DHT22;21030;53.912;15.214;2023-09-08T06:55:39;46.80;23.90
34815;DHT22;21030;53.912;15.214;2023-09-08T06:58:10;47.00;23.60
34815;DHT22;21030;53.912;15.214;2023-09-08T07:00:39;47.10;23.30
34815;DHT22;21030;53.912;15.214;2023-09-08T07:03:06;47.20;23.50
34815;DHT22;21030;53.912;15.214;2023-09-08T07:05:35;47.10;23.40
34815;DHT22;21030;53.912;15.214;2023-09-08T07:08:02;47.00;23.30
34815;DHT22;21030;53.912;15.214;2023-09-08T07:10:30;47.30;23.30
34815;DHT22;21030;53.912;15.214;2023-09-08T07:12:57;47.60;23.10
34815;DHT22;21030;53.912;15.214;2023-09-08T07:15:23;47.80;23.00
34815;DHT22;21030;53.912;15.214;2023-09-08T07:17:50;48.10;23.00
34815;DHT22;21030;53.912;15.214;2023-09-08T07:20:17;48.40;23.10
34815;DHT22;21030;53.912;15.214;2023-09-08T07:22:44;48.60;22.90
34815;DHT22;21030;53.912;15.214;2023-09-08T07:25:12;49.00;22.90
34815;DHT22;21030;53.912;15.214;2023-09-08T07:27:39;49.00;22.70
34815;DHT22;21030;53.912;15.214;2023-09-08T07:30:07;48.70;22.20
34815;DHT22;21030;53.912;15.214;2023-09-08T07:32:34;48.30;21.90
34815;DHT22;21030;53.912;15.214;2023-09-08T07:35:01;48.60;22.30
34815;DHT22;21030;53.912;15.214;2023-09-08T07:37:28;48.90;22.30
34815;DHT22;21030;53.912;15.214;2023-09-08T07:39:55;49.00;21.90
34815;DHT22;21030;53.912;15.214;2023-09-08T07:42:22;49.40;22.10
34815;DHT22;21030;53.912;15.214;2023-09-08T07:44:50;49.60;21.80
34815;DHT22;21030;53.912;15.214;2023-09-08T07:47:17;49.50;21.80
34815;DHT22;21030;53.912;15.214;2023-09-08T07:49:47;49.20;21.80
34815;DHT22;21030;53.912;15.214;2023-09-08T07:52:14;49.00;22.00
34815;DHT22;21030;53.912;15.214;2023-09-08T07:54:43;49.30;22.10
34815;DHT22;21030;53.912;15.214;2023-09-08T07:57:10;49.00;21.90
34815;DHT22;21030;53.912;15.214;2023-09-08T07:59:37;49.40;22.10
34815;DHT22;21030;53.912;15.214;2023-09-08T08:02:04;48.90;21.40
34815;DHT22;21030;53.912;15.214;2023-09-08T08:04:31;48.70;21.70
34815;DHT22;21030;53.912;15.214;2023-09-08T08:06:58;48.40;22.10
34815;DHT22;21030;53.912;15.214;2023-09-08T08:09:25;48.70;22.10
34815;DHT22;21030;53.912;15.214;2023-09-08T08:11:52;49.10;22.20
34815;DHT22;21030;53.912;15.214;2023-09-08T08:14:19;49.90;22.00
34815;DHT22;21030;53.912;15.214;2023-09-08T08:16:46;50.00;21.40
34815;DHT22;21030;53.912;15.214;2023-09-08T08:19:13;49.90;20.90
34815;DHT22;21030;53.912;15.214;2023-09-08T08:21:40;49.60;21.20
34815;DHT22;21030;53.912;15.214;2023-09-08T08:24:09;49.30;21.30
34815;DHT22;21030;53.912;15.214;2023-09-08T08:26:37;49.20;21.40
34815;DHT22;21030;53.912;15.214;2023-09-08T08:29:04;49.40;21.30
34815;DHT22;21030;53.912;15.214;2023-09-08T08:31:31;49.80;21.30
34815;DHT22;21030;53.912;15.214;2023-09-08T08:34:01;49.50;21.10
34815;DHT22;21030;53.912;15.214;2023-09-08T08:36:27;50.00;20.90
34815;DHT22;21030;53.912;15.214;2023-09-08T08:38:55;50.30;21.10
34815;DHT22;21030;53.912;15.214;2023-09-08T08:41:22;50.00;21.20
34815;DHT22;21030;53.912;15.214;2023-09-08T08:43:50;50.50;20.90
34815;DHT22;21030;53.912;15.214;2023-09-08T08:46:18;50.80;20.70
34815;DHT22;21030;53.912;15.214;2023-09-08T08:48:48;51.10;20.40
34815;DHT22;21030;53.912;15.214;2023-09-08T08:51:18;51.20;20.10
34815;DHT22;21030;53.912;15.214;2023-09-08T08:53:46;51.20;20.10
34815;DHT22;21030;53.912;15.214;2023-09-08T08:56:13;51.20;20.40
34815;DHT22;21030;53.912;15.214;2023-09-08T08:58:41;51.80;20.30
34815;DHT22;21030;53.912;15.214;2023-09-08T09:01:11;51.90;20.00
34815;DHT22;21030;53.912;15.214;2023-09-08T09:03:40;51.90;19.80
34815;DHT22;21030;53.912;15.214;2023-09-08T09:06:09;51.40;19.40
34815;DHT22;21030;53.912;15.214;2023-09-08T09:08:37;52.00;19.80
34815;DHT22;21030;53.912;15.214;2023-09-08T09:11:05;51.80;19.40
34815;DHT22;21030;53.912;15.214;2023-09-08T09:13:32;52.00;19.60
34815;DHT22;21030;53.912;15.214;2023-09-08T09:16:00;52.20;19.60
34815;DHT22;21030;53.912;15.214;2023-09-08T09:18:30;52.20;19.30
34815;DHT22;21030;53.912;15.214;2023-09-08T09:21:00;52.40;19.20
34815;DHT22;21030;53.912;15.214;2023-09-08T09:23:31;52.60;18.90
34815;DHT22;21030;53.912;15.214;2023-09-08T09:26:01;52.10;18.60
34815;DHT22;21030;53.912;15.214;2023-09-08T09:28:30;51.90;19.00
34815;DHT22;21030;53.912;15.214;2023-09-08T09:30:59;51.80;19.00
34815;DHT22;21030;53.912;15.214;2023-09-08T09:33:27;52.10;19.20
34815;DHT22;21030;53.912;15.214;2023-09-08T09:35:56;52.00;18.90
34815;DHT22;21030;53.912;15.214;2023-09-08T09:38:26;51.70;19.10
34815;DHT22;21030;53.912;15.214;2023-09-08T09:40:55;51.10;18.60
34815;DHT22;21030;53.912;15.214;2023-09-08T09:43:22;50.80;19.00
34815;DHT22;21030;53.912;15.214;2023-09-08T09:45:50;51.10;19.00
34815;DHT22;21030;53.912;15.214;2023-09-08T09:48:19;51.30;18.90
34815;DHT22;21030;53.912;15.214;2023-09-08T09:50:47;51.30;19.40
34815;DHT22;21030;53.912;15.214;2023-09-08T09:53:16;51.80;19.20
34815;DHT22;21030;53.912;15.214;2023-09-08T09:55:45;51.80;19.10
34815;DHT22;21030;53.912;15.214;2023-09-08T09:58:13;51.60;18.90
34815;DHT22;21030;53.912;15.214;2023-09-08T10:00:41;51.70;18.70
34815;DHT22;21030;53.912;15.214;2023-09-08T10:03:15;52.10;19.20
34815;DHT22;21030;53.912;15.214;2023-09-08T10:05:43;52.60;18.80
34815;DHT22;21030;53.912;15.214;2023-09-08T10:08:12;51.70;18.60
34815;DHT22;21030;53.912;15.214;2023-09-08T10:10:39;51.60;18.50
34815;DHT22;21030;53.912;15.214;2023-09-08T10:13:10;51.60;18.60
34815;DHT22;21030;53.912;15.214;2023-09-08T10:15:38;51.50;18.40
34815;DHT22;21030;53.912;15.214;2023-09-08T10:18:06;51.40;18.80
34815;DHT22;21030;53.912;15.214;2023-09-08T10:20:34;50.80;18.60
34815;DHT22;21030;53.912;15.214;2023-09-08T10:55:38;51.10;18.60
34815;DHT22;21030;53.912;15.214;2023-09-08T10:58:09;50.90;18.50
34815;DHT22;21030;53.912;15.214;2023-09-08T11:00:59;51.20;19.10
34815;DHT22;21030;53.912;15.214;2023-09-08T11:06:11;51.80;18.60
34815;DHT22;21030;53.912;15.214;2023-09-08T11:08:44;52.40;18.80
34815;DHT22;21030;53.912;15.214;2023-09-08T11:11:12;52.10;18.40
34815;DHT22;21030;53.912;15.214;2023-09-08T11:13:40;52.20;18.30
34815;DHT22;21030;53.912;15.214;2023-09-08T11:16:08;52.60;18.50
34815;DHT22;21030;53.912;15.214;2023-09-08T11:18:35;52.20;18.20
34815;DHT22;21030;53.912;15.214;2023-09-08T11:21:08;51.50;18.40
34815;DHT22;21030;53.912;15.214;2023-09-08T11:23:36;51.10;18.70
34815;DHT22;21030;53.912;15.214;2023-09-08T11:26:03;51.50;18.80
34815;DHT22;21030;53.912;15.214;2023-09-08T11:28:30;51.50;18.80
34815;DHT22;21030;53.912;15.214;2023-09-08T11:30:57;51.00;18.50
34815;DHT22;21030;53.912;15.214;2023-09-08T11:33:25;50.60;18.50
34815;DHT22;21030;53.912;15.214;2023-09-08T11:35:53;51.20;18.70
34815;DHT22;21030;53.912;15.214;2023-09-08T11:38:28;51.10;18.90
34815;DHT22;21030;53.912;15.214;2023-09-08T11:40:57;51.10;18.70
34815;DHT22;21030;53.912;15.214;2023-09-08T11:43:26;50.80;18.20
34815;DHT22;21030;53.912;15.214;2023-09-08T11:45:54;51.50;18.70
34815;DHT22;21030;53.912;15.214;2023-09-08T11:48:24;52.20;18.90
34815;DHT22;21030;53.912;15.214;2023-09-08T11:50:54;52.10;18.20
34815;DHT22;21030;53.912;15.214;2023-09-08T11:53:22;51.90;18.10
34815;DHT22;21030;53.912;15.214;2023-09-08T11:55:50;52.10;18.20
34815;DHT22;21030;53.912;15.214;2023-09-08T11:58:20;52.10;18.30
34815;DHT22;21030;53.912;15.214;2023-09-08T12:00:48;51.70;17.90
34815;DHT22;21030;53.912;15.214;2023-09-08T12:03:16;51.90;18.30
34815;DHT22;21030;53.912;15.214;2023-09-08T12:05:45;51.90;18.30
34815;DHT22;21030;53.912;15.214;2023-09-08T12:08:20;52.20;18.60
34815;DHT22;21030;53.912;15.214;2023-09-08T12:10:47;52.50;18.60
34815;DHT22;21030;53.912;15.214;2023-09-08T12:13:21;52.30;17.90
34815;DHT22;21030;53.912;15.214;2023-09-08T12:15:48;53.30;18.10
34815;DHT22;21030;53.912;15.214;2023-09-08T12:18:15;52.60;17.80
34815;DHT22;21030;53.912;15.214;2023-09-08T12:20:43;52.90;17.90
34815;DHT22;21030;53.912;15.214;2023-09-08T12:23:21;53.00;17.90
34815;DHT22;21030;53.912;15.214;2023-09-08T12:25:52;52.60;18.10
34815;DHT22;21030;53.912;15.214;2023-09-08T12:28:20;52.50;17.70
34815;DHT22;21030;53.912;15.214;2023-09-08T12:30:51;52.20;18.10
34815;DHT22;21030;53.912;15.214;2023-09-08T12:33:21;52.30;18.10
34815;DHT22;21030;53.912;15.214;2023-09-08T12:35:50;52.00;18.20
34815;DHT22;21030;53.912;15.214;2023-09-08T12:38:19;51.30;18.60
34815;DHT22;21030;53.912;15.214;2023-09-08T12:40:46;51.40;18.50
34815;DHT22;21030;53.912;15.214;2023-09-08T12:43:13;51.20;18.60
34815;DHT22;21030;53.912;15.214;2023-09-08T12:45:54;51.10;18.50
34815;DHT22;21030;53.912;15.214;2023-09-08T12:48:22;51.40;18.60
34815;DHT22;21030;53.912;15.214;2023-09-08T12:50:49;51.50;18.60
34815;DHT22;21030;53.912;15.214;2023-09-08T12:53:17;51.30;18.80
34815;DHT22;21030;53.912;15.214;2023-09-08T12:55:46;51.30;18.60
34815;DHT22;21030;53.912;15.214;2023-09-08T12:58:13;51.50;19.10
34815;DHT22;21030;53.912;15.214;2023-09-08T13:00:41;51.70;18.80
34815;DHT22;21030;53.912;15.214;2023-09-08T13:03:10;51.40;18.80
34815;DHT22;21030;53.912;15.214;2023-09-08T13:05:37;51.70;19.00
34815;DHT22;21030;53.912;15.214;2023-09-08T13:08:06;52.20;18.90
34815;DHT22;21030;53.912;15.214;2023-09-08T13:10:33;51.80;18.70
34815;DHT22;21030;53.912;15.214;2023-09-08T13:13:00;52.10;18.70
34815;DHT22;21030;53.912;15.214;2023-09-08T13:15:27;52.60;18.40
34815;DHT22;21030;53.912;15.214;2023-09-08T13:17:55;52.60;18.30
34815;DHT22;21030;53.912;15.214;2023-09-08T13:20:22;52.40;18.20
34815;DHT22;21030;53.912;15.214;2023-09-08T13:22:49;51.30;18.00
34815;DHT22;21030;53.912;15.214;2023-09-08T13:25:16;51.70;18.60
34815;DHT22;21030;53.912;15.214;2023-09-08T13:27:43;52.00;18.60
34815;DHT22;21030;53.912;15.214;2023-09-08T13:30:12;52.20;18.50
34815;DHT22;21030;53.912;15.214;2023-09-08T13:32:40;50.50;18.10
34815;DHT22;21030;53.912;15.214;2023-09-08T13:35:08;51.20;18.90
34815;DHT22;21030;53.912;15.214;2023-09-08T13:37:35;51.70;19.10
34815;DHT22;21030;53.912;15.214;2023-09-08T13:40:05;51.60;18.60
34815;DHT22;21030;53.912;15.214;2023-09-08T13:42:32;51.70;18.50
34815;DHT22;21030;53.912;15.214;2023-09-08T13:44:59;51.80;18.80
34815;DHT22;21030;53.912;15.214;2023-09-08T13:47:27;51.40;18.20
34815;DHT22;21030;53.912;15.214;2023-09-08T13:49:55;51.40;18.20
34815;DHT22;21030;53.912;15.214;2023-09-08T13:52:24;51.00;18.30
34815;DHT22;21030;53.912;15.214;2023-09-08T13:54:56;51.30;18.20
34815;DHT22;21030;53.912;15.214;2023-09-08T13:57:26;51.60;18.50
34815;DHT22;21030;53.912;15.214;2023-09-08T13:59:55;50.00;18.50
34815;DHT22;21030;53.912;15.214;2023-09-08T14:02:23;50.40;19.20
34815;DHT22;21030;53.912;15.214;2023-09-08T14:04:53;50.70;19.00
34815;DHT22;21030;53.912;15.214;2023-09-08T14:07:26;51.10;18.90
34815;DHT22;21030;53.912;15.214;2023-09-08T14:10:03;50.80;18.70
34815;DHT22;21030;53.912;15.214;2023-09-08T14:12:37;50.60;18.60
34815;DHT22;21030;53.912;15.214;2023-09-08T14:15:04;50.40;19.00
34815;DHT22;21030;53.912;15.214;2023-09-08T14:17:31;50.20;19.20
34815;DHT22;21030;53.912;15.214;2023-09-08T14:19:58;50.40;18.90
34815;DHT22;21030;53.912;15.214;2023-09-08T14:22:26;50.10;18.70
34815;DHT22;21030;53.912;15.214;2023-09-08T14:24:53;50.10;19.00
34815;DHT22;21030;53.912;15.214;2023-09-08T14:27:20;50.00;19.00
34815;DHT22;21030;53.912;15.214;2023-09-08T14:29:47;50.10;19.10
34815;DHT22;21030;53.912;15.214;2023-09-08T14:32:14;50.30;19.00
34815;DHT22;21030;53.912;15.214;2023-09-08T14:34:41;50.40;19.10
34815;DHT22;21030;53.912;15.214;2023-09-08T14:37:08;50.40;18.70
34815;DHT22;21030;53.912;15.214;2023-09-08T14:39:37;50.40;19.20
34815;DHT22;21030;53.912;15.214;2023-09-08T14:42:04;50.10;19.30
34815;DHT22;21030;53.912;15.214;2023-09-08T14:44:32;50.50;19.10
34815;DHT22;21030;53.912;15.214;2023-09-08T14:46:59;50.40;19.00
34815;DHT22;21030;53.912;15.214;2023-09-08T14:49:26;50.00;19.50
34815;DHT22;21030;53.912;15.214;2023-09-08T14:51:53;49.70;19.30
34815;DHT22;21030;53.912;15.214;2023-09-08T14:54:21;50.20;19.40
34815;DHT22;21030;53.912;15.214;2023-09-08T14:56:48;50.00;19.20
34815;DHT22;21030;53.912;15.214;2023-09-08T14:59:15;49.60;19.60
34815;DHT22;21030;53.912;15.214;2023-09-08T15:01:42;49.20;19.90
34815;DHT22;21030;53.912;15.214;2023-09-08T15:04:12;49.10;19.80
34815;DHT22;21030;53.912;15.214;2023-09-08T15:06:39;49.20;20.00
34815;DHT22;21030;53.912;15.214;2023-09-08T15:09:06;48.60;19.80
34815;DHT22;21030;53.912;15.214;2023-09-08T15:11:33;47.60;20.40
34815;DHT22;21030;53.912;15.214;2023-09-08T15:14:00;47.70;20.60
34815;DHT22;21030;53.912;15.214;2023-09-08T15:16:27;47.10;21.00
34815;DHT22;21030;53.912;15.214;2023-09-08T15:18:54;46.90;21.40
34815;DHT22;21030;53.912;15.214;2023-09-08T15:21:24;47.00;22.00
34815;DHT22;21030;53.912;15.214;2023-09-08T15:23:54;46.70;22.20
34815;DHT22;21030;53.912;15.214;2023-09-08T15:26:21;46.30;22.20
34815;DHT22;21030;53.912;15.214;2023-09-08T15:28:48;46.50;22.50
34815;DHT22;21030;53.912;15.214;2023-09-08T15:31:16;46.60;22.50
34815;DHT22;21030;53.912;15.214;2023-09-08T15:33:44;46.20;22.40
34815;DHT22;21030;53.912;15.214;2023-09-08T15:36:11;46.00;22.70
34815;DHT22;21030;53.912;15.214;2023-09-08T15:38:39;44.60;23.00
34815;DHT22;21030;53.912;15.214;2023-09-08T15:43:39;44.50;23.50
34815;DHT22;21030;53.912;15.214;2023-09-08T15:46:08;44.70;23.80
34815;DHT22;21030;53.912;15.214;2023-09-08T15:48:36;45.10;23.90
34815;DHT22;21030;53.912;15.214;2023-09-08T15:51:04;45.00;23.90
34815;DHT22;21030;53.912;15.214;2023-09-08T15:53:32;44.60;24.20
34815;DHT22;21030;53.912;15.214;2023-09-08T15:56:00;44.90;24.10
34815;DHT22;21030;53.912;15.214;2023-09-08T15:58:27;44.70;23.90
34815;DHT22;21030;53.912;15.214;2023-09-08T16:00:54;44.70;24.10